createdAt,value
2018-09-29T00:01:04.630Z,99111.50
2018-09-29T00:03:37.032Z,99111.34
2018-09-29T00:06:09.353Z,99112.00
2018-09-29T00:08:41.739Z,99115.34
2018-09-29T00:11:13.750Z,99123.67
2018-09-29T00:13:45.533Z,99123.98
2018-09-29T00:16:17.395Z,99131.33
2018-09-29T00:18:49.557Z,99129.01
2018-09-29T00:21:21.636Z,99137.31
2018-09-29T00:23:53.507Z,99146.11
2018-09-29T00:26:25.657Z,99142.27
2018-09-29T00:28:57.353Z,99138.27
2018-09-29T00:31:29.453Z,99143.25
2018-09-29T00:34:01.504Z,99145.92
2018-09-29T00:36:33.198Z,99148.58
2018-09-29T00:39:05.835Z,99146.23
2018-09-29T00:41:38.103Z,99148.05
2018-09-29T00:44:10.054Z,99157.22
2018-09-29T00:46:42.240Z,99157.22
2018-09-29T00:49:14.308Z,99156.42
2018-09-29T00:51:46.399Z,99155.58
2018-09-29T00:54:18.042Z,99156.57
2018-09-29T00:56:50.047Z,99162.86
2018-09-29T00:59:23.692Z,99162.86
2018-09-29T01:01:55.825Z,99168.94
2018-09-29T01:04:27.893Z,99169.09
2018-09-29T01:07:00.118Z,99165.59
2018-09-29T01:09:32.062Z,99168.71
2018-09-29T01:12:03.921Z,99175.72
2018-09-29T01:14:35.713Z,99174.72
2018-09-29T01:17:07.998Z,99177.84
2018-09-29T01:19:40.175Z,99181.00
2018-09-29T01:22:12.123Z,99188.80
2018-09-29T01:24:43.842Z,99196.15
2018-09-29T01:27:15.610Z,99191.46
2018-09-29T01:29:47.730Z,99193.94
2018-09-29T01:32:19.642Z,99203.26
2018-09-29T01:34:51.744Z,99204.13
2018-09-29T01:37:23.699Z,99207.30
2018-09-29T01:39:55.542Z,99212.12
2018-09-29T01:42:27.826Z,99216.96
2018-09-29T01:45:00.193Z,99218.52
2018-09-29T01:47:32.087Z,99224.19
2018-09-29T01:50:03.782Z,99222.86
2018-09-29T01:52:36.295Z,99223.16
2018-09-29T01:55:08.403Z,99229.14
2018-09-29T01:57:40.347Z,99227.27
2018-09-29T02:00:13.169Z,99232.10
2018-09-29T02:02:45.341Z,99240.09
2018-09-29T02:05:17.713Z,99246.56
2018-09-29T02:07:49.886Z,99253.06
2018-09-29T02:10:21.809Z,99246.06
2018-09-29T02:12:53.887Z,99248.73
2018-09-29T02:15:25.862Z,99250.06
2018-09-29T02:17:58.002Z,99252.08
2018-09-29T02:20:30.256Z,99263.77
2018-09-29T02:23:03.017Z,99264.75
2018-09-29T02:25:35.353Z,99265.78
2018-09-29T02:28:07.333Z,99274.73
2018-09-29T02:30:40.267Z,99274.80
2018-09-29T02:33:12.716Z,99273.33
2018-09-29T02:35:45.248Z,99275.16
2018-09-29T02:38:18.060Z,99277.66
2018-09-29T02:40:49.997Z,99279.84
2018-09-29T02:43:22.050Z,99277.97
2018-09-29T02:45:54.638Z,99277.47
2018-09-29T02:48:26.990Z,99281.81
2018-09-29T02:50:59.010Z,99279.14
2018-09-29T02:53:30.937Z,99280.13
